Time;durP1;ratioP1;P1;durP2;ratioP2;P2;SDS_P1;SDS_P2;PMS_P1;PMS_P2;Temp;Humidity;BMP_temperature;BMP_pressure;BME280_temperature;BME280_humidity;BME280_pressure;Samples;Min_cycle;Max_cycle;Signal;HPM_P1;HPM_P2
2022/04/25 00:00:21;;;;;;;21.83;4.28;;;;;;;19.22;83.98;99244.78;5152988;27;20663;-78
2022/04/25 00:02:50;;;;;;;17.58;3.50;;;;;;;19.21;83.88;99248.31;5116328;27;20658;-78
2022/04/25 00:05:16;;;;;;;17.13;4.38;;;;;;;18.66;84.93;99174.84;5152880;27;20204;-78
2022/04/25 00:07:43;;;;;;;21.95;4.90;;;;;;;19.04;84.23;99232.25;5152329;27;20199;-79
2022/04/25 00:10:10;;;;;;;22.13;4.57;;;;;;;19.15;84.60;99247.66;5152376;27;20219;-78
2022/04/25 00:12:37;;;;;;;13.85;3.28;;;;;;;19.14;84.57;99227.56;5152195;27;20200;-78
2022/04/25 00:15:07;;;;;;;19.15;4.80;;;;;;;18.97;85.21;99214.97;5152402;27;20649;-78
2022/04/25 00:17:34;;;;;;;16.63;4.15;;;;;;;19.05;85.01;99236.59;5152776;27;20200;-78
2022/04/25 00:20:01;;;;;;;36.78;5.03;;;;;;;18.59;85.04;99157.56;5152256;27;20230;-77
2022/04/25 00:22:28;;;;;;;17.33;3.40;;;;;;;19.04;85.66;99232.25;5152609;27;20192;-78
2022/04/25 00:24:55;;;;;;;15.40;3.83;;;;;;;18.99;86.00;99238.56;5152348;27;20231;-77
2022/04/25 00:27:22;;;;;;;20.45;3.20;;;;;;;18.60;86.24;99190.78;5152140;27;20200;-78
2022/04/25 00:29:49;;;;;;;28.58;4.40;;;;;;;18.93;86.07;99231.75;5152394;27;20196;-78
2022/04/25 00:32:17;;;;;;;15.63;3.95;;;;;;;18.96;86.45;99242.16;5116200;27;20211;-78
2022/04/25 00:34:43;;;;;;;13.75;3.60;;;;;;;18.90;86.81;99215.22;5155533;27;20598;-78
2022/04/25 00:37:10;;;;;;;22.88;4.88;;;;;;;18.99;85.93;99228.91;5135197;27;20791;-79
2022/04/25 00:39:37;;;;;;;21.17;5.25;;;;;;;19.00;85.86;99232.41;5134809;27;20221;-78
2022/04/25 00:42:05;;;;;;;19.60;3.97;;;;;;;18.93;85.50;99233.50;5135007;27;20200;-78
2022/04/25 00:44:31;;;;;;;23.58;4.32;;;;;;;19.03;85.32;99237.56;5134735;27;20200;-78
2022/04/25 00:47:00;;;;;;;28.20;4.90;;;;;;;18.94;85.60;99222.94;5134715;27;20204;-78
2022/04/25 00:49:28;;;;;;;18.63;3.85;;;;;;;18.83;85.98;99204.06;5134698;27;20224;-78
2022/04/25 00:51:55;;;;;;;13.88;3.78;;;;;;;18.96;85.50;99231.66;5134872;27;20205;-78
2022/04/25 00:54:22;;;;;;;17.73;3.75;;;;;;;19.04;84.57;99234.88;5115317;27;20680;-78
2022/04/25 00:56:50;;;;;;;19.35;4.43;;;;;;;18.91;84.16;99209.03;5134564;27;20205;-78
2022/04/25 00:59:18;;;;;;;18.20;3.72;;;;;;;19.03;84.75;99227.91;5134342;27;20281;-78
2022/04/25 01:01:46;;;;;;;18.13;3.83;;;;;;;18.77;84.49;99188.47;5134562;27;20249;-78
2022/04/25 01:04:13;;;;;;;17.25;3.83;;;;;;;19.08;84.02;99228.63;5134770;27;20200;-77
2022/04/25 01:06:41;;;;;;;17.23;4.70;;;;;;;19.04;83.81;99229.63;5098407;27;20197;-77
2022/04/25 01:09:08;;;;;;;32.53;4.95;;;;;;;19.06;83.35;99222.53;5098191;27;20212;-77
2022/04/25 01:11:35;;;;;;;11.13;3.72;;;;;;;19.10;83.29;99229.41;5134231;27;20204;-77
2022/04/25 01:14:20;;;;;;;18.88;4.22;;;;;;;18.97;83.24;99207.09;5134447;27;20577;-77
2022/04/25 01:16:48;;;;;;;17.10;3.15;;;;;;;19.07;83.35;99223.41;5134462;27;20215;-78
2022/04/25 01:19:15;;;;;;;21.38;4.25;;;;;;;18.95;83.00;99222.03;5134133;27;20256;-77
2022/04/25 01:21:49;;;;;;;26.45;4.95;;;;;;;19.08;82.63;99226.00;5134080;27;20204;-77
2022/04/25 01:27:17;;;;;;;17.33;4.18;;;;;;;18.94;83.91;99219.47;5117792;27;20257;-77
2022/04/25 01:29:45;;;;;;;18.55;4.03;;;;;;;18.93;84.90;99230.88;5133322;27;20204;-77
2022/04/25 01:32:12;;;;;;;13.43;4.13;;;;;;;18.82;83.83;99215.47;5133936;27;20235;-77
2022/04/25 01:34:40;;;;;;;18.05;3.70;;;;;;;18.96;84.02;99215.88;5134399;27;20203;-79
2022/04/25 01:37:07;;;;;;;16.55;4.38;;;;;;;18.78;84.10;99203.34;5134455;27;20196;-79
2022/04/25 01:39:40;;;;;;;16.33;3.95;;;;;;;18.88;83.72;99225.78;5134251;27;20292;-77
2022/04/25 01:42:08;;;;;;;17.85;3.92;;;;;;;18.79;83.93;99205.06;5098415;27;20205;-78
2022/04/25 01:44:35;;;;;;;17.05;4.10;;;;;;;18.90;83.72;99210.84;5133655;27;20242;-77
2022/04/25 01:47:02;;;;;;;34.67;4.65;;;;;;;18.88;83.98;99220.53;5133917;27;20702;-76
2022/04/25 01:49:29;;;;;;;18.92;4.25;;;;;;;18.75;84.14;99211.31;5133848;27;20622;-78
2022/04/25 01:51:57;;;;;;;14.02;4.30;;;;;;;18.77;83.89;99223.50;5133741;27;20197;-78
2022/04/25 01:54:26;;;;;;;19.88;4.03;;;;;;;18.85;83.50;99209.25;5133375;27;20197;-77
2022/04/25 01:56:55;;;;;;;21.00;4.85;;;;;;;18.82;82.76;99215.47;5133494;27;20208;-77
2022/04/25 01:59:23;;;;;;;12.68;3.75;;;;;;;18.84;84.05;99211.00;5133331;27;20232;-77
2022/04/25 02:01:51;;;;;;;24.60;4.30;;;;;;;18.73;83.79;99202.63;5133107;27;20219;-79
2022/04/25 02:04:17;;;;;;;13.38;4.40;;;;;;;18.76;83.60;99194.66;5133775;27;20213;-78
2022/04/25 02:06:44;;;;;;;16.33;4.18;;;;;;;18.74;83.12;99186.81;5133235;27;20205;-78
2022/04/25 02:09:11;;;;;;;19.50;4.70;;;;;;;18.74;83.94;99199.97;5133290;27;20205;-78
2022/04/25 02:11:38;;;;;;;30.50;4.47;;;;;;;18.67;83.85;99180.06;5133064;27;20204;-77
2022/04/25 02:14:06;;;;;;;17.35;3.85;;;;;;;18.53;84.58;99171.75;5096975;27;20197;-77
2022/04/25 02:16:33;;;;;;;16.70;3.70;;;;;;;18.55;84.11;99166.47;5133478;27;20252;-76
2022/04/25 02:19:00;;;;;;;22.08;4.00;;;;;;;18.62;84.32;99189.00;5096758;27;20221;-76
2022/04/25 02:21:26;;;;;;;25.85;4.47;;;;;;;18.70;84.49;99200.09;5113784;27;20602;-77
2022/04/25 02:23:53;;;;;;;14.20;4.40;;;;;;;18.61;86.12;99210.91;5133563;27;20796;-77
2022/04/25 02:26:20;;;;;;;26.92;4.30;;;;;;;17.93;86.18;99095.78;5133423;27;20235;-77
2022/04/25 02:28:47;;;;;;;14.32;4.55;;;;;;;18.62;84.65;99212.63;5097494;27;20193;-77
2022/04/25 02:31:16;;;;;;;17.95;3.88;;;;;;;18.52;85.41;99188.41;5133401;27;20197;-76
2022/04/25 02:33:43;;;;;;;26.52;4.25;;;;;;;18.61;84.32;99208.28;5133236;27;20200;-77
2022/04/25 02:36:10;;;;;;;27.45;4.63;;;;;;;18.43;84.64;99185.19;5145061;27;20220;-78
2022/04/25 02:38:39;;;;;;;23.27;4.22;;;;;;;18.64;84.56;99202.94;5153581;27;20196;-77
2022/04/25 02:41:06;;;;;;;21.65;3.97;;;;;;;18.43;85.32;99167.69;5153762;27;20199;-77
2022/04/25 02:43:34;;;;;;;19.63;5.43;;;;;;;18.61;84.24;99200.41;5153796;27;20189;-77
2022/04/25 02:46:02;;;;;;;18.70;3.90;;;;;;;18.37;85.57;99167.00;5153546;27;20560;-77
2022/04/25 02:48:30;;;;;;;20.52;4.22;;;;;;;18.57;84.92;99206.66;5153816;27;20192;-78
2022/04/25 02:50:57;;;;;;;14.88;4.80;;;;;;;18.22;85.10;99147.34;5153533;27;20200;-77
2022/04/25 02:53:25;;;;;;;22.45;6.00;;;;;;;18.40;85.30;99199.28;5153525;27;20200;-76
2022/04/25 02:55:53;;;;;;;16.13;4.40;;;;;;;18.49;85.45;99209.47;5152873;27;20631;-77
2022/04/25 02:58:20;;;;;;;11.85;3.72;;;;;;;18.29;85.51;99170.75;5117362;27;20275;-77
2022/04/25 03:00:47;;;;;;;15.02;3.63;;;;;;;18.23;86.46;99177.91;5153220;27;20216;-78
2022/04/25 03:03:14;;;;;;;24.92;5.40;;;;;;;18.38;86.98;99205.47;5116868;27;20200;-77
2022/04/25 03:05:44;;;;;;;22.13;5.07;;;;;;;18.41;86.26;99211.47;5152976;27;20196;-76
2022/04/25 03:08:11;;;;;;;20.38;4.78;;;;;;;18.41;86.03;99208.00;5152739;27;20766;-77
2022/04/25 03:10:38;;;;;;;17.27;4.15;;;;;;;18.18;84.95;99172.81;5152668;27;20236;-76
2022/04/25 03:13:06;;;;;;;25.85;5.20;;;;;;;18.20;84.36;99159.63;5152933;27;20196;-78
2022/04/25 03:15:33;;;;;;;18.50;4.82;;;;;;;18.20;84.24;99154.41;5153011;27;20200;-78
2022/04/25 03:18:00;;;;;;;13.23;4.43;;;;;;;18.33;82.68;99176.75;5153083;27;20232;-78
2022/04/25 03:20:27;;;;;;;29.40;6.30;;;;;;;18.60;82.64;99214.44;5133378;27;20280;-78
2022/04/25 03:22:55;;;;;;;23.50;5.38;;;;;;;18.66;83.73;99216.84;5153168;27;20200;-78
2022/04/25 03:25:22;;;;;;;22.65;4.07;;;;;;;18.66;82.07;99211.59;5153230;27;20240;-78
2022/04/25 03:27:49;;;;;;;24.27;4.43;;;;;;;18.75;81.63;99222.69;5152589;27;20755;-79
2022/04/25 03:30:16;;;;;;;24.75;4.43;;;;;;;18.71;82.21;99226.31;5153185;27;20196;-78
2022/04/25 03:32:46;;;;;;;21.58;4.50;;;;;;;18.83;82.18;99224.22;5153797;27;20204;-77
2022/04/25 03:35:13;;;;;;;21.02;4.40;;;;;;;18.70;82.48;99200.09;5149416;27;20189;-76
2022/04/25 03:37:41;;;;;;;22.63;5.07;;;;;;;18.66;83.25;99208.97;5132847;28;20224;-77
2022/04/25 03:40:10;;;;;;;29.45;4.75;;;;;;;18.89;83.39;99240.63;5132752;27;20232;-78
2022/04/25 03:42:38;;;;;;;28.80;8.48;;;;;;;18.97;83.83;99233.38;5131964;28;20556;-78
2022/04/25 03:45:05;;;;;;;29.40;8.23;;;;;;;18.93;83.45;99215.97;5132652;28;20204;-78
2022/04/25 03:47:33;;;;;;;29.73;7.97;;;;;;;18.56;83.07;99155.03;5131946;27;20208;-78
2022/04/25 03:49:59;;;;;;;19.10;4.60;;;;;;;18.83;84.77;99214.56;5132258;28;20201;-78
2022/04/25 03:52:26;;;;;;;22.13;5.05;;;;;;;18.81;83.06;99195.34;5132727;27;20753;-79
2022/04/25 03:57:38;;;;;;;29.73;6.90;;;;;;;19.31;81.93;99239.22;5131461;28;20192;-79
2022/04/25 04:00:07;;;;;;;31.08;12.00;;;;;;;19.49;81.55;99239.53;5131906;28;20257;-78
2022/04/25 04:02:34;;;;;;;17.77;4.85;;;;;;;19.48;81.63;99245.69;5096170;28;20261;-79
2022/04/25 04:05:02;;;;;;;25.05;5.70;;;;;;;19.57;80.31;99248.00;5132917;28;20208;-79
2022/04/25 04:07:29;;;;;;;26.15;6.40;;;;;;;19.81;80.61;99241.88;5134568;27;20225;-78
2022/04/25 04:09:56;;;;;;;27.95;7.50;;;;;;;19.98;80.13;99242.13;5139733;27;20201;-78
2022/04/25 04:12:26;;;;;;;26.02;8.50;;;;;;;20.23;78.75;99245.56;5101750;27;20204;-77
2022/04/25 04:14:54;;;;;;;29.30;5.68;;;;;;;20.34;78.88;99239.94;5136910;27;20679;-78
2022/04/25 04:17:21;;;;;;;22.92;6.40;;;;;;;20.31;79.48;99224.25;5136458;27;20193;-77
2022/04/25 04:19:48;;;;;;;21.92;6.63;;;;;;;20.64;79.63;99222.09;5135612;27;20235;-77
2022/04/25 04:22:15;;;;;;;22.90;5.47;;;;;;;20.87;74.27;99208.00;5136038;27;20211;-77
2022/04/25 04:24:42;;;;;;;20.42;4.07;;;;;;;21.18;71.23;99213.75;5135817;27;20268;-77
2022/04/25 04:27:09;;;;;;;29.83;4.50;;;;;;;21.11;68.64;99207.88;5135822;27;20200;-77
2022/04/25 04:29:36;;;;;;;20.13;3.72;;;;;;;21.05;69.23;99200.19;5136008;27;20208;-75
2022/04/25 04:32:06;;;;;;;24.27;4.45;;;;;;;21.22;68.66;99181.06;5135546;27;20204;-78
2022/04/25 04:34:33;;;;;;;16.60;4.35;;;;;;;21.55;66.89;99239.41;5134645;27;20235;-77
2022/04/25 04:37:00;;;;;;;25.35;7.38;;;;;;;21.01;68.37;99255.75;5153707;27;20219;-77
2022/04/25 04:39:27;;;;;;;25.30;5.00;;;;;;;21.52;69.00;99244.81;5155945;27;20192;-78
2022/04/25 04:41:54;;;;;;;33.15;7.20;;;;;;;22.19;67.64;99272.63;5155294;27;20204;-79
2022/04/25 04:44:21;;;;;;;34.60;5.85;;;;;;;22.45;67.67;99274.09;5155415;27;20203;-79
2022/04/25 04:46:48;;;;;;;19.10;5.32;;;;;;;22.77;67.05;99283.19;5155766;27;20196;-79
2022/04/25 04:49:16;;;;;;;20.88;5.82;;;;;;;22.40;68.10;99280.53;5155528;27;20291;-77
2022/04/25 04:51:43;;;;;;;23.95;5.18;;;;;;;22.55;68.41;99277.16;5155462;27;20268;-78
2022/04/25 04:54:10;;;;;;;20.85;5.72;;;;;;;23.06;71.75;99266.78;5118718;27;20195;-78
2022/04/25 04:56:37;;;;;;;27.02;6.25;;;;;;;23.48;66.10;99287.63;5118811;27;20200;-76
2022/04/25 04:59:05;;;;;;;13.68;4.88;;;;;;;23.26;65.08;99272.91;5156310;27;20200;-77
2022/04/25 05:01:32;;;;;;;23.52;5.93;;;;;;;22.69;62.06;99253.63;5155634;27;20319;-77
2022/04/25 05:03:59;;;;;;;29.55;6.00;;;;;;;22.87;63.12;99295.03;5156459;27;20200;-80
2022/04/25 05:06:27;;;;;;;23.65;5.85;;;;;;;23.22;62.37;99275.66;5156073;27;20287;-77
2022/04/25 05:08:55;;;;;;;18.23;5.22;;;;;;;23.97;61.56;99263.97;5155898;27;20231;-79
2022/04/25 05:11:22;;;;;;;31.27;11.10;;;;;;;24.70;58.81;99303.28;5155537;27;20196;-79
2022/04/25 05:13:49;;;;;;;32.00;13.25;;;;;;;25.01;57.61;99313.91;5154835;27;20200;-79
2022/04/25 05:16:16;;;;;;;20.80;6.40;;;;;;;24.79;56.91;99292.19;5154942;27;20207;-74
2022/04/25 05:18:44;;;;;;;32.67;8.02;;;;;;;25.02;57.75;99302.38;5147481;27;20204;-75
2022/04/25 05:21:12;;;;;;;30.75;7.90;;;;;;;25.29;57.30;99330.94;5133599;27;20240;-74
2022/04/25 05:23:41;;;;;;;26.05;7.93;;;;;;;25.52;57.55;99327.84;5133914;27;20200;-77
2022/04/25 05:26:08;;;;;;;19.27;6.53;;;;;;;25.39;56.33;99258.66;5133390;27;20613;-76
2022/04/25 05:28:35;;;;;;;25.45;6.90;;;;;;;25.94;55.65;99322.66;5133663;27;20204;-77
2022/04/25 05:31:02;;;;;;;25.85;6.10;;;;;;;25.57;54.75;99324.00;5133638;27;20604;-78
2022/04/25 05:33:29;;;;;;;15.38;5.45;;;;;;;25.06;54.39;99309.22;5133649;27;20204;-77
2022/04/25 05:35:55;;;;;;;22.77;4.45;;;;;;;24.66;54.72;99317.63;5143525;27;20219;-77
2022/04/25 05:38:22;;;;;;;17.45;5.32;;;;;;;24.38;55.87;99317.41;5154528;27;20192;-78
2022/04/25 05:40:52;;;;;;;23.10;6.03;;;;;;;23.81;55.84;99300.09;5154392;27;20224;-77
2022/04/25 05:43:19;;;;;;;19.13;5.20;;;;;;;23.26;58.01;99307.28;5118279;27;20196;-78
2022/04/25 05:45:47;;;;;;;21.70;4.88;;;;;;;23.08;58.19;99299.28;5154121;27;20220;-77
2022/04/25 05:53:43;;;;;;;11.70;4.85;;;;;;;23.09;58.85;99295.72;5154006;27;20223;-75
2022/04/25 05:56:11;;;;;;;18.60;5.03;;;;;;;23.20;58.25;99293.41;5154296;27;20196;-76
2022/04/25 05:58:38;;;;;;;39.67;6.80;;;;;;;23.23;57.91;99303.84;5135032;27;20257;-74
2022/04/25 06:01:05;;;;;;;19.08;4.03;;;;;;;23.03;58.27;99300.47;5133204;27;20233;-73
2022/04/25 06:03:31;;;;;;;27.80;4.38;;;;;;;23.42;58.27;99305.63;5095347;27;20194;-73
2022/04/25 06:05:58;;;;;;;20.35;4.88;;;;;;;23.48;58.55;99302.66;5111899;27;20336;-74
2022/04/25 06:08:25;;;;;;;30.13;4.07;;;;;;;23.47;58.49;99311.56;5132748;27;20292;-76
2022/04/25 06:10:52;;;;;;;27.80;5.70;;;;;;;23.50;53.46;99303.47;5132307;27;20208;-71
2022/04/25 06:13:20;;;;;;;23.55;3.80;;;;;;;23.38;54.43;99302.22;5131125;27;20200;-73
2022/04/25 06:15:47;;;;;;;10.32;3.58;;;;;;;23.37;53.34;99308.44;5131426;27;20185;-76
2022/04/25 06:18:13;;;;;;;13.93;4.10;;;;;;;23.33;55.77;99282.25;5095962;27;20196;-73
2022/04/25 06:20:40;;;;;;;22.25;3.63;;;;;;;23.38;52.33;99294.28;5112827;27;20309;-73
2022/04/25 06:23:07;;;;;;;10.43;3.35;;;;;;;23.54;52.36;99299.72;5129223;27;20215;-72
2022/04/25 06:25:36;;;;;;;9.27;3.97;;;;;;;23.51;50.35;99287.47;5131231;27;20237;-74
2022/04/25 06:28:04;;;;;;;10.63;3.80;;;;;;;23.68;49.09;99284.00;5122638;27;20343;-76
2022/04/25 06:30:32;;;;;;;16.10;3.67;;;;;;;23.81;48.71;99295.66;5131101;27;20211;-74
2022/04/25 06:32:59;;;;;;;14.40;4.70;;;;;;;23.94;49.13;99299.38;5130733;27;20200;-74
2022/04/25 06:35:27;;;;;;;14.30;4.35;;;;;;;23.82;49.47;99249.72;5131790;27;20193;-75
2022/04/25 06:37:54;;;;;;;24.50;3.17;;;;;;;24.55;48.93;99304.09;5130876;27;20201;-75
2022/04/25 06:40:21;;;;;;;16.40;2.97;;;;;;;24.55;48.72;99304.09;5131782;27;20277;-77
2022/04/25 06:42:51;;;;;;;10.05;3.22;;;;;;;24.70;49.26;99279.41;5131848;27;20664;-77
2022/04/25 06:45:17;;;;;;;17.23;3.53;;;;;;;24.77;48.18;99304.66;5131688;27;20283;-73
2022/04/25 06:47:46;;;;;;;24.38;3.25;;;;;;;24.63;48.15;99296.59;5131550;27;20246;-76
2022/04/25 06:50:13;;;;;;;18.25;2.95;;;;;;;24.13;48.92;99244.56;5131657;27;20200;-74
2022/04/25 06:52:40;;;;;;;129.05;56.42;;;;;;;24.15;49.31;99252.44;5131158;27;20208;-74
2022/04/25 06:55:07;;;;;;;86.97;33.85;;;;;;;24.49;49.45;99280.59;5131489;27;20197;-70
2022/04/25 06:57:34;;;;;;;11.38;3.15;;;;;;;24.34;49.94;99266.38;5128340;27;20590;-72
2022/04/25 07:00:01;;;;;;;13.68;2.72;;;;;;;24.32;50.60;99308.00;5130854;27;20570;-72
2022/04/25 07:02:28;;;;;;;23.70;6.85;;;;;;;24.26;50.44;99255.31;5130924;27;20227;-76
2022/04/25 07:04:56;;;;;;;49.17;17.85;;;;;;;24.39;51.54;99313.84;5131474;27;20196;-78
2022/04/25 07:07:25;;;;;;;31.95;14.55;;;;;;;24.05;52.97;99307.63;5129680;27;20240;-78
2022/04/25 07:09:52;;;;;;;26.42;11.32;;;;;;;23.91;51.51;99285.44;5107827;28;20289;-75
2022/04/25 07:12:18;;;;;;;22.85;8.27;;;;;;;24.17;51.84;99298.22;5116730;27;20676;-77
2022/04/25 07:14:45;;;;;;;16.92;4.40;;;;;;;24.35;52.22;99320.22;5127794;27;20200;-76
2022/04/25 07:17:12;;;;;;;6.40;2.40;;;;;;;24.25;51.93;99317.22;5130238;27;20200;-80
2022/04/25 07:19:39;;;;;;;19.00;3.92;;;;;;;24.32;51.91;99312.47;5129561;27;20193;-76
2022/04/25 07:30:22;;;;;;;15.52;3.17;;;;;;;24.37;53.17;99321.84;5129603;28;20203;-80
2022/04/25 07:32:49;;;;;;;10.27;3.28;;;;;;;24.16;54.10;99323.84;5124943;27;20886;-80
2022/04/25 07:35:17;;;;;;;15.02;2.92;;;;;;;24.28;54.07;99334.75;5125652;28;20209;-79
2022/04/25 07:37:45;;;;;;;16.10;3.83;;;;;;;24.25;53.73;99327.81;5111623;28;20200;-80
2022/04/25 07:40:12;;;;;;;13.13;3.35;;;;;;;24.17;54.99;99320.28;5127258;28;20203;-79
2022/04/25 07:42:39;;;;;;;8.38;2.80;;;;;;;24.05;55.33;99296.16;5131333;27;20197;-77
2022/04/25 07:45:08;;;;;;;7.80;3.58;;;;;;;24.44;56.39;99301.19;5104619;28;20255;-78
2022/04/25 07:47:34;;;;;;;12.27;3.13;;;;;;;24.57;55.15;99303.09;5118181;27;20274;-80
2022/04/25 07:50:02;;;;;;;22.40;3.90;;;;;;;24.60;56.58;99323.28;5123518;27;20205;-79
2022/04/25 07:52:28;;;;;;;27.23;8.68;;;;;;;24.60;55.51;99331.22;5122864;27;20647;-78
2022/04/25 07:54:57;;;;;;;23.70;7.90;;;;;;;24.81;56.73;99329.19;5114140;27;20196;-81
2022/04/25 07:57:24;;;;;;;14.93;3.55;;;;;;;24.87;56.35;99331.53;5124547;27;20696;-79
2022/04/25 07:59:50;;;;;;;13.57;3.08;;;;;;;24.71;56.20;99336.81;5122203;27;20235;-80
2022/04/25 08:02:18;;;;;;;15.25;4.00;;;;;;;24.51;58.12;99331.72;5132058;27;20228;-80
2022/04/25 08:04:46;;;;;;;9.27;2.85;;;;;;;24.33;59.40;99338.03;5118107;27;20266;-78
2022/04/25 08:07:13;;;;;;;15.15;3.38;;;;;;;24.55;58.87;99347.38;5120612;27;20229;-76
2022/04/25 08:09:40;;;;;;;3.80;1.98;;;;;;;24.43;55.77;99341.91;5129044;27;20233;-78
2022/04/25 08:20:23;;;;;;;7.30;2.35;;;;;;;24.30;57.21;99304.56;5102527;27;20208;-76
2022/04/25 08:22:50;;;;;;;13.98;3.03;;;;;;;24.26;58.61;99328.69;5134479;27;20211;-76
2022/04/25 08:25:18;;;;;;;14.50;3.13;;;;;;;24.52;59.57;99318.38;5133367;27;20303;-76
2022/04/25 08:27:46;;;;;;;16.27;3.00;;;;;;;24.72;58.81;99317.31;5133698;27;20744;-77
2022/04/25 08:30:13;;;;;;;16.75;2.92;;;;;;;24.65;59.62;99318.56;5133575;27;20204;-78
2022/04/25 08:32:40;;;;;;;14.38;2.88;;;;;;;24.73;59.84;99329.63;5133160;27;20633;-78
2022/04/25 08:35:09;;;;;;;16.67;3.05;;;;;;;24.87;61.11;99319.13;5132974;27;20201;-75
2022/04/25 08:37:36;;;;;;;9.18;3.00;;;;;;;25.05;59.97;99326.06;5133945;27;20237;-77
2022/04/25 08:40:03;;;;;;;6.57;3.03;;;;;;;24.92;58.29;99325.06;5109820;28;20189;-77
2022/04/25 08:42:31;;;;;;;7.00;2.22;;;;;;;25.18;57.71;99321.78;5123880;27;21241;-80
2022/04/25 08:45:02;;;;;;;7.30;2.55;;;;;;;24.80;56.73;99299.16;5134232;27;20203;-78
2022/04/25 08:47:32;;;;;;;13.27;3.17;;;;;;;25.17;57.58;99312.13;5134139;27;20219;-77
2022/04/25 08:49:59;;;;;;;12.30;3.55;;;;;;;25.41;56.79;99309.00;5132320;27;20653;-79
2022/04/25 08:52:28;;;;;;;7.80;2.67;;;;;;;25.46;55.95;99320.22;5126754;27;20200;-79
2022/04/25 08:54:57;;;;;;;8.43;2.90;;;;;;;25.38;53.85;99323.31;5133678;27;20200;-83
2022/04/25 08:57:25;;;;;;;11.02;2.42;;;;;;;25.52;54.86;99304.81;5134045;27;20238;-81
2022/04/25 08:59:53;;;;;;;14.32;2.70;;;;;;;25.48;55.11;99313.00;5137795;27;20663;-79
2022/04/25 09:02:22;;;;;;;10.95;2.80;;;;;;;25.48;52.59;99315.66;5137987;27;20700;-79
2022/04/25 09:04:50;;;;;;;7.65;2.65;;;;;;;25.73;53.10;99313.31;5137726;27;20196;-79
2022/04/25 09:07:17;;;;;;;8.63;2.83;;;;;;;25.42;56.73;99314.22;5139287;27;20192;-76
2022/04/25 09:09:44;;;;;;;5.68;2.15;;;;;;;25.35;52.41;99307.56;5137090;27;20201;-78
2022/04/25 09:12:13;;;;;;;10.07;3.22;;;;;;;25.42;53.01;99303.59;5133211;27;20684;-78
2022/04/25 09:14:42;;;;;;;11.73;3.20;;;;;;;25.58;53.47;99320.38;5095617;27;20284;-76
2022/04/25 09:17:09;;;;;;;9.98;2.90;;;;;;;25.82;54.14;99315.44;5132958;27;20671;-78
2022/04/25 09:19:39;;;;;;;7.03;2.60;;;;;;;25.26;55.44;99320.47;5132789;27;20645;-76
2022/04/25 09:22:07;;;;;;;8.77;3.05;;;;;;;25.13;55.62;99302.63;5132520;27;20217;-78
2022/04/25 09:24:35;;;;;;;10.98;2.67;;;;;;;25.40;50.78;99321.41;5132739;27;20224;-75
2022/04/25 09:27:13;;;;;;;12.73;3.30;;;;;;;25.52;50.33;99323.41;5133148;27;20224;-76
2022/04/25 09:29:41;;;;;;;11.90;2.35;;;;;;;25.35;49.85;99328.81;5111377;27;20204;-73
2022/04/25 09:32:09;;;;;;;6.15;2.20;;;;;;;25.05;52.30;99320.78;5069926;27;20201;-74
2022/04/25 09:37:40;;;;;;;3.75;2.20;;;;;;;24.64;53.76;99322.19;5132457;27;20196;-76
2022/04/25 09:40:08;;;;;;;11.18;3.15;;;;;;;24.42;54.42;99324.28;5131945;27;20216;-75
2022/04/25 09:42:35;;;;;;;4.50;2.35;;;;;;;24.78;54.08;99326.72;5113298;27;20734;-75
2022/04/25 09:45:02;;;;;;;13.93;3.72;;;;;;;24.71;54.34;99312.09;5132628;27;20321;-78
2022/04/25 09:47:29;;;;;;;8.80;2.72;;;;;;;24.77;53.84;99315.25;5092299;28;20201;-77
2022/04/25 09:50:02;;;;;;;9.95;2.92;;;;;;;24.97;54.01;99307.06;5112095;27;20201;-78
2022/04/25 09:52:29;;;;;;;6.80;2.90;;;;;;;24.92;54.87;99325.06;5128346;27;20197;-78
2022/04/25 09:54:58;;;;;;;9.80;2.85;;;;;;;24.96;53.40;99321.28;5132055;27;20208;-77
2022/04/25 09:57:32;;;;;;;12.15;2.95;;;;;;;25.14;55.62;99322.91;5131771;27;20220;-76
2022/04/25 09:59:59;;;;;;;9.52;3.25;;;;;;;24.67;58.30;99319.34;5132309;27;20203;-79
2022/04/25 10:02:26;;;;;;;5.53;3.03;;;;;;;24.88;59.51;99322.66;5131677;27;20229;-79
2022/04/25 10:04:53;;;;;;;8.48;2.97;;;;;;;24.50;60.16;99295.56;5130892;27;20668;-75
2022/04/25 10:07:23;;;;;;;9.52;2.70;;;;;;;25.01;59.90;99313.91;5132617;27;20203;-77
2022/04/25 10:09:53;;;;;;;7.13;3.00;;;;;;;25.00;61.02;99300.75;5112709;27;20249;-77
2022/04/25 10:12:21;;;;;;;6.25;2.67;;;;;;;24.92;58.42;99316.25;5132239;27;20666;-77
2022/04/25 10:14:49;;;;;;;32.22;12.00;;;;;;;25.13;57.92;99323.84;5111855;27;20645;-75
2022/04/25 10:17:17;;;;;;;8.07;3.20;;;;;;;25.05;56.67;99323.41;5131862;27;20212;-74
2022/04/25 10:19:45;;;;;;;12.35;2.83;;;;;;;25.30;54.31;99298.13;5132032;27;20205;-76
2022/04/25 10:22:13;;;;;;;9.35;2.65;;;;;;;25.38;52.53;99317.13;5131717;27;20305;-76
2022/04/25 10:24:42;;;;;;;8.25;2.55;;;;;;;25.45;51.26;99315.84;5131104;27;20236;-75
2022/04/25 10:27:14;;;;;;;11.88;2.80;;;;;;;25.46;49.10;99298.97;5097561;27;20189;-76
2022/04/25 10:29:49;;;;;;;10.32;3.22;;;;;;;25.83;49.47;99324.22;5131800;27;20192;-76
2022/04/25 10:32:22;;;;;;;16.75;2.15;;;;;;;24.96;48.53;99305.38;5131409;27;20193;-76
2022/04/25 10:34:53;;;;;;;3.90;2.53;;;;;;;24.75;47.61;99318.94;5124038;27;20277;-75
2022/04/25 10:37:31;;;;;;;6.10;2.58;;;;;;;25.01;47.47;99321.88;5125324;27;20208;-76
2022/04/25 10:40:00;;;;;;;10.75;2.92;;;;;;;25.39;47.51;99330.34;5122353;27;20212;-75
2022/04/25 10:45:12;;;;;;;10.20;3.30;;;;;;;25.85;46.87;99327.69;5128531;27;20854;-76
2022/04/25 10:47:57;;;;;;;6.13;2.30;;;;;;;25.27;46.23;99300.97;5129331;27;20200;-80
2022/04/25 10:50:29;;;;;;;7.30;3.22;;;;;;;25.47;45.87;99321.94;5093309;27;20295;-76
2022/04/25 10:53:01;;;;;;;9.38;2.45;;;;;;;25.48;45.56;99320.97;5126765;27;20603;-75
2022/04/25 10:55:47;;;;;;;8.45;3.17;;;;;;;25.39;45.98;99330.34;5124096;27;20278;-75
2022/04/25 10:58:15;;;;;;;5.25;2.53;;;;;;;25.48;46.13;99339.56;5131720;27;20201;-78
2022/04/25 11:00:56;;;;;;;6.82;2.20;;;;;;;25.41;46.37;99328.44;5089956;27;20200;-77
2022/04/25 11:03:29;;;;;;;10.52;3.35;;;;;;;25.50;45.72;99311.13;5119495;27;20219;-76
2022/04/25 11:05:57;;;;;;;3.58;2.17;;;;;;;25.40;46.55;99352.44;5129902;27;20205;-76
2022/04/25 11:08:38;;;;;;;7.63;2.35;;;;;;;25.05;46.76;99349.09;5110385;27;20184;-75
2022/04/25 11:11:16;;;;;;;10.65;2.85;;;;;;;25.08;48.18;99341.81;5130687;27;20197;-75
2022/04/25 11:14:13;;;;;;;10.15;2.38;;;;;;;25.54;47.58;99337.44;5130885;27;20211;-77
2022/04/25 11:16:41;;;;;;;8.13;3.30;;;;;;;25.44;47.52;99332.69;5064307;28;20199;-76
2022/04/25 11:19:14;;;;;;;10.45;3.40;;;;;;;25.50;48.33;99340.34;5026461;28;20203;-76
2022/04/25 11:21:47;;;;;;;6.15;3.05;;;;;;;25.74;49.22;99330.09;5047167;28;21334;-77
2022/04/25 11:24:35;;;;;;;11.93;3.03;;;;;;;25.81;49.48;99340.28;5055112;28;20187;-75
2022/04/25 11:27:05;;;;;;;33.92;15.38;;;;;;;25.27;50.50;99346.94;5045333;28;20203;-76
2022/04/25 11:29:32;;;;;;;5.30;2.45;;;;;;;25.06;50.54;99321.63;5051102;28;20203;-77
2022/04/25 11:32:25;;;;;;;9.57;3.08;;;;;;;25.45;50.35;99345.03;5053177;28;20207;-76
2022/04/25 11:34:52;;;;;;;11.00;3.03;;;;;;;25.10;49.40;99344.41;5056998;28;20214;-74
2022/04/25 11:37:22;;;;;;;10.00;3.58;;;;;;;25.20;50.16;99331.47;5066875;28;20263;-75
2022/04/25 11:39:59;;;;;;;10.13;3.33;;;;;;;25.06;51.05;99322.47;5066514;28;20264;-75
2022/04/25 11:42:29;;;;;;;6.57;2.72;;;;;;;25.15;50.67;99335.22;5054710;28;20253;-74
2022/04/25 11:44:56;;;;;;;6.78;2.88;;;;;;;25.41;49.38;99325.78;5018979;28;20202;-79
2022/04/25 11:47:23;;;;;;;5.70;2.63;;;;;;;25.02;49.13;99333.34;5052602;28;20201;-78
2022/04/25 11:49:57;;;;;;;9.82;2.30;;;;;;;25.01;48.86;99335.13;5066965;28;20226;-76
2022/04/25 11:52:24;;;;;;;9.65;2.88;;;;;;;25.25;48.98;99332.06;5058417;28;20744;-76
2022/04/25 11:54:51;;;;;;;5.60;2.50;;;;;;;25.36;48.67;99329.66;5130226;28;20246;-78
2022/04/25 11:57:17;;;;;;;8.80;2.85;;;;;;;25.35;49.17;99325.28;5120999;28;20197;-76
2022/04/25 11:59:46;;;;;;;11.20;2.65;;;;;;;25.41;50.03;99338.19;5129943;27;20929;-75
2022/04/25 12:02:13;;;;;;;8.48;3.15;;;;;;;25.46;49.60;99328.19;5129478;28;20225;-77
2022/04/25 12:04:42;;;;;;;12.77;2.95;;;;;;;25.48;49.10;99307.69;5125025;27;20304;-75